This is the latest recevied weather packets stored in our database for station/object N5ATR. If no packets are shown the sender has not sent any weather packets the latest 10 day(s).
| Time | Temp. | Humidity | Pressure | Rain* | Wind** | Luminosity | Snow |
|---|---|---|---|---|---|---|---|
| 1777860449 | 13.89° C | 54% | 1015.1 hPa | 0 mm | - | 0 W/m² | - |
| 1777860146 | 14.44° C | 51% | 1015.4 hPa | 0 mm | - | 1 W/m² | - |
| 1777859842 | 15° C | 44% | 1015.4 hPa | 0 mm | - | 2 W/m² | - |
| 1777859538 | 15° C | 40% | 1015.4 hPa | 0 mm | - | 3 W/m² | - |
| 1777859234 | 15° C | 39% | 1015.1 hPa | 0 mm | - | 5 W/m² | - |
| 1777858931 | 15° C | 39% | 1015.3 hPa | 0 mm | - | 7 W/m² | - |
| 1777858629 | 15.56° C | 37% | 1015.4 hPa | 0 mm | - | 10 W/m² | - |
| 1777858326 | 16.11° C | 36% | 1015.3 hPa | 0 mm | - | 13 W/m² | - |
| 1777858023 | 16.67° C | 35% | 1015.1 hPa | 0 mm | - | 17 W/m² | - |
| 1777857721 | 16.67° C | 34% | 1015 hPa | 0 mm | - | 20 W/m² | - |
| 1777857418 | 16.67° C | 34% | 1015.5 hPa | 0 mm | - | 24 W/m² | - |
| 1777857114 | 17.22° C | 33% | 1015.1 hPa | 0 mm | - | 29 W/m² | - |
| 1777856810 | 17.22° C | 32% | 1015.1 hPa | 0 mm | - | 35 W/m² | - |
| 1777856505 | 17.78° C | 32% | 1015.3 hPa | 0 mm | - | 41 W/m² | - |
| 1777856203 | 17.78° C | 31% | 1015.4 hPa | 0 mm | - | 47 W/m² | - |
| 1777855899 | 17.78° C | 30% | 1015.5 hPa | 0 mm | - | 54 W/m² | - |
| 1777855598 | 17.78° C | 29% | 1015.3 hPa | 0 mm | - | 60 W/m² | - |
| 1777855294 | 18.33° C | 29% | 1015.3 hPa | 0 mm | - | 77 W/m² | - |
| 1777854991 | 18.33° C | 28% | 1015.6 hPa | 0 mm | - | 90 W/m² | - |
| 1777854687 | 18.33° C | 27% | 1015.6 hPa | 0 mm | - | 104 W/m² | - |
| 1777854384 | 18.33° C | 27% | 1015.4 hPa | 0 mm | - | 121 W/m² | - |
| 1777854082 | 18.89° C | 27% | 1015.4 hPa | 0 mm | - | 137 W/m² | - |
| 1777853780 | 18.33° C | 27% | 1015.7 hPa | 0 mm | - | 151 W/m² | - |
| 1777853475 | 18.89° C | 27% | 1015.5 hPa | 0 mm | - | 165 W/m² | - |
| 1777853173 | 18.33° C | 27% | 1015.5 hPa | 0 mm | - | 179 W/m² | - |
* Rain latest hour (hover to see other rain measurements)
** Current wind speed in m/s (hover to see current wind gust speed)